Time;durP1;ratioP1;P1;durP2;ratioP2;P2;SDS_P1;SDS_P2;PMS_P1;PMS_P2;Temp;Humidity;BMP_temperature;BMP_pressure;BME280_temperature;BME280_humidity;BME280_pressure;Samples;Min_cycle;Max_cycle;Signal;HPM_P1;HPM_P2
2024/02/25 06:02:49;;;;;;;8.87;5.30;;;;;;;;;;5010724;28;20516;-76
2024/02/25 06:05:15;;;;;;;10.03;6.00;;;;;;;;;;5012184;28;20434;-77
2024/02/25 06:07:42;;;;;;;6.07;4.57;;;;;;;;;;5012515;28;20506;-76
2024/02/25 06:10:08;;;;;;;6.40;5.07;;;;;;;;;;5011018;28;20929;-76
2024/02/25 06:12:38;;;;;;;9.13;5.53;;;;;;;;;;4992999;28;20941;-76
2024/02/25 06:15:04;;;;;;;8.77;5.40;;;;;;;;;;4992869;28;20415;-77
2024/02/25 06:17:30;;;;;;;7.90;5.30;;;;;;;;;;4991853;28;20751;-77
2024/02/25 06:19:56;;;;;;;13.33;6.67;;;;;;;;;;4993403;28;20422;-77
2024/02/25 06:22:22;;;;;;;9.83;6.00;;;;;;;;;;5006629;28;20434;-77
2024/02/25 06:24:48;;;;;;;9.63;5.93;;;;;;;;;;5013037;28;20478;-76
2024/02/25 06:27:15;;;;;;;12.30;6.83;;;;;;;;;;5012498;28;20422;-77
2024/02/25 06:29:41;;;;;;;10.70;6.20;;;;;;;;;;5010366;28;20411;-77
2024/02/25 06:32:07;;;;;;;9.50;6.50;;;;;;;;;;4992778;28;20673;-77
2024/02/25 06:34:33;;;;;;;10.80;6.93;;;;;;;;;;4992586;28;20415;-77
2024/02/25 06:36:59;;;;;;;8.57;6.23;;;;;;;;;;4992712;28;20429;-76
2024/02/25 06:39:25;;;;;;;16.33;6.30;;;;;;;;;;4995038;28;20833;-77
2024/02/25 06:41:52;;;;;;;8.83;5.80;;;;;;;;;;4996067;28;20438;-77
2024/02/25 06:44:18;;;;;;;8.60;6.50;;;;;;;;;;4996336;28;20415;-76
2024/02/25 06:46:44;;;;;;;10.93;6.20;;;;;;;;;;4995154;28;20431;-77
2024/02/25 06:49:10;;;;;;;12.53;5.77;;;;;;;;;;4996155;28;20422;-77
2024/02/25 06:51:36;;;;;;;9.40;5.50;;;;;;;;;;4996042;28;20422;-77
2024/02/25 06:54:03;;;;;;;8.90;5.57;;;;;;;;;;4995859;28;20516;-77
2024/02/25 06:56:31;;;;;;;5.57;5.00;;;;;;;;;;5003638;28;20488;-77
2024/02/25 06:58:57;;;;;;;7.63;5.00;;;;;;;;;;4980453;28;20454;-76
2024/02/25 07:01:23;;;;;;;6.60;4.63;;;;;;;;;;4975200;28;20904;-77
2024/02/25 07:03:49;;;;;;;8.37;4.03;;;;;;;;;;4976237;28;20779;-77
2024/02/25 07:06:15;;;;;;;7.10;4.67;;;;;;;;;;4973973;28;20852;-77
2024/02/25 07:08:41;;;;;;;5.77;4.30;;;;;;;;;;4976435;28;20411;-77
2024/02/25 07:11:15;;;;;;;6.87;4.30;;;;;;;;;;4976197;28;20435;-77
2024/02/25 07:13:41;;;;;;;9.33;4.77;;;;;;;;;;4974949;28;20475;-77
2024/02/25 07:16:07;;;;;;;7.70;4.63;;;;;;;;;;4976283;28;20416;-77
2024/02/25 07:18:33;;;;;;;10.00;4.63;;;;;;;;;;4974792;28;20415;-77
2024/02/25 07:20:59;;;;;;;7.47;4.40;;;;;;;;;;4976164;28;21014;-76
2024/02/25 07:23:25;;;;;;;10.00;5.80;;;;;;;;;;4976110;28;20891;-76
2024/02/25 07:25:51;;;;;;;5.07;4.33;;;;;;;;;;4976008;28;20419;-77
2024/02/25 07:28:17;;;;;;;8.77;4.50;;;;;;;;;;4975805;28;20466;-77
2024/02/25 07:30:43;;;;;;;9.33;4.53;;;;;;;;;;4975917;28;20466;-77
2024/02/25 07:33:10;;;;;;;10.10;5.30;;;;;;;;;;4975610;28;20478;-77
2024/02/25 07:35:36;;;;;;;7.50;5.00;;;;;;;;;;4975762;28;20414;-76
2024/02/25 07:38:02;;;;;;;5.90;4.80;;;;;;;;;;4975821;28;20876;-77
2024/02/25 07:40:28;;;;;;;7.63;4.37;;;;;;;;;;4975735;28;20950;-77
2024/02/25 07:42:54;;;;;;;9.30;4.63;;;;;;;;;;4974136;28;20424;-77
2024/02/25 07:45:19;;;;;;;8.80;4.97;;;;;;;;;;4975506;28;20420;-77
2024/02/25 07:47:45;;;;;;;9.83;5.10;;;;;;;;;;4974289;28;20785;-77
2024/02/25 07:50:11;;;;;;;8.43;5.50;;;;;;;;;;4974452;28;20581;-77
2024/02/25 07:52:37;;;;;;;6.23;4.73;;;;;;;;;;4974017;28;20502;-77
2024/02/25 07:55:04;;;;;;;11.90;5.47;;;;;;;;;;4974152;28;20507;-77
2024/02/25 07:57:33;;;;;;;6.63;4.53;;;;;;;;;;4974117;28;20427;-76
2024/02/25 07:59:59;;;;;;;8.77;5.20;;;;;;;;;;4975568;28;20426;-77
2024/02/25 08:02:25;;;;;;;11.67;6.23;;;;;;;;;;4975342;28;20460;-77
2024/02/25 08:04:51;;;;;;;6.80;4.27;;;;;;;;;;4975616;28;20511;-77
2024/02/25 08:07:17;;;;;;;12.53;5.47;;;;;;;;;;4974048;28;20420;-77
2024/02/25 08:09:43;;;;;;;9.00;4.63;;;;;;;;;;4975397;28;20416;-76
2024/02/25 08:12:09;;;;;;;9.90;5.40;;;;;;;;;;4975261;28;20439;-77
2024/02/25 08:14:35;;;;;;;9.00;5.93;;;;;;;;;;4975380;28;20887;-77
2024/02/25 08:17:01;;;;;;;12.30;5.10;;;;;;;;;;4973699;28;20929;-77
2024/02/25 08:19:27;;;;;;;8.57;4.10;;;;;;;;;;4973374;28;20439;-77
2024/02/25 08:21:53;;;;;;;5.47;3.90;;;;;;;;;;4973325;28;20436;-77
2024/02/25 08:24:19;;;;;;;8.03;4.40;;;;;;;;;;4974245;28;20455;-76
2024/02/25 08:26:45;;;;;;;14.03;4.83;;;;;;;;;;4975145;28;20503;-77
2024/02/25 08:29:11;;;;;;;8.20;4.47;;;;;;;;;;4975156;28;20412;-77
2024/02/25 08:31:37;;;;;;;7.70;4.63;;;;;;;;;;4974963;28;20803;-77
2024/02/25 08:34:03;;;;;;;8.03;4.10;;;;;;;;;;4975189;28;20463;-77
2024/02/25 08:36:29;;;;;;;8.50;4.90;;;;;;;;;;4975364;28;20435;-78
2024/02/25 08:38:55;;;;;;;9.53;3.90;;;;;;;;;;4985443;28;20487;-77
2024/02/25 08:41:21;;;;;;;9.27;4.37;;;;;;;;;;4981439;28;20870;-77
2024/02/25 08:43:50;;;;;;;6.27;3.60;;;;;;;;;;4976007;28;20891;-77
2024/02/25 08:46:15;;;;;;;3.40;3.20;;;;;;;;;;4976845;28;20435;-77
2024/02/25 08:48:41;;;;;;;7.57;3.77;;;;;;;;;;4988494;28;20420;-77
2024/02/25 08:51:07;;;;;;;5.63;3.40;;;;;;;;;;4989110;28;20439;-77
2024/02/25 08:53:33;;;;;;;3.30;2.50;;;;;;;;;;4988704;28;20471;-76
2024/02/25 08:55:59;;;;;;;3.77;2.63;;;;;;;;;;4995634;28;20431;-75
2024/02/25 08:58:25;;;;;;;6.93;3.10;;;;;;;;;;5009627;28;20403;-76
2024/02/25 09:00:51;;;;;;;5.00;3.10;;;;;;;;;;5010765;28;20473;-76
2024/02/25 09:03:17;;;;;;;3.90;2.60;;;;;;;;;;5011005;28;20406;-76
2024/02/25 09:05:43;;;;;;;2.43;2.07;;;;;;;;;;5009440;28;20419;-75
2024/02/25 09:08:09;;;;;;;1.60;1.60;;;;;;;;;;5011888;28;20478;-75
2024/02/25 09:10:36;;;;;;;3.33;1.97;;;;;;;;;;5007174;28;20480;-76
2024/02/25 09:13:05;;;;;;;3.20;2.10;;;;;;;;;;5008814;28;20834;-76
2024/02/25 09:15:32;;;;;;;3.40;1.60;;;;;;;;;;5010972;28;20918;-76
2024/02/25 09:18:00;;;;;;;2.10;1.70;;;;;;;;;;5011307;28;20418;-76
2024/02/25 09:20:29;;;;;;;4.10;1.83;;;;;;;;;;5012020;28;20482;-75
2024/02/25 09:22:55;;;;;;;5.47;2.10;;;;;;;;;;5011552;28;20434;-76
2024/02/25 09:25:21;;;;;;;1.77;1.70;;;;;;;;;;5012859;28;20415;-75
2024/02/25 09:27:47;;;;;;;5.23;2.10;;;;;;;;;;5012761;28;20411;-76
2024/02/25 09:30:14;;;;;;;4.10;2.00;;;;;;;;;;5010516;28;20469;-76
2024/02/25 09:32:40;;;;;;;3.23;1.53;;;;;;;;;;5010135;28;20517;-76
2024/02/25 09:35:06;;;;;;;2.73;1.87;;;;;;;;;;5006990;28;21050;-76
2024/02/25 09:37:32;;;;;;;2.40;1.70;;;;;;;;;;4999701;28;20419;-76
2024/02/25 09:39:58;;;;;;;2.73;1.70;;;;;;;;;;4991789;28;20416;-76
2024/02/25 09:42:24;;;;;;;2.60;1.57;;;;;;;;;;4989981;28;20793;-75
2024/02/25 09:44:54;;;;;;;3.00;1.73;;;;;;;;;;4989338;28;20443;-76
2024/02/25 09:47:22;;;;;;;2.60;1.40;;;;;;;;;;4987693;28;20420;-76
2024/02/25 09:49:49;;;;;;;3.40;1.70;;;;;;;;;;4989763;28;20446;-76
2024/02/25 09:52:17;;;;;;;2.60;1.70;;;;;;;;;;4988884;28;20438;-77
2024/02/25 09:54:45;;;;;;;3.00;1.60;;;;;;;;;;4987652;28;20410;-76
2024/02/25 09:57:11;;;;;;;2.87;2.17;;;;;;;;;;4988606;28;20412;-76
2024/02/25 09:59:37;;;;;;;7.13;2.60;;;;;;;;;;4991153;28;20454;-76
2024/02/25 10:02:06;;;;;;;2.60;2.10;;;;;;;;;;4989913;28;20460;-76
2024/02/25 10:04:33;;;;;;;2.83;1.90;;;;;;;;;;4987980;28;20416;-77
2024/02/25 10:06:59;;;;;;;2.60;1.90;;;;;;;;;;4986867;28;20447;-76
2024/02/25 10:09:30;;;;;;;1.70;1.40;;;;;;;;;;5003097;28;20445;-77
2024/02/25 10:11:56;;;;;;;3.97;1.63;;;;;;;;;;5000501;28;20501;-77
2024/02/25 10:14:22;;;;;;;1.93;1.50;;;;;;;;;;4999359;28;20491;-77
2024/02/25 10:17:04;;;;;;;2.90;2.00;;;;;;;;;;4999894;28;20407;-77
2024/02/25 10:19:31;;;;;;;1.40;1.30;;;;;;;;;;5005314;28;20486;-76
2024/02/25 10:22:06;;;;;;;2.77;1.97;;;;;;;;;;5007784;28;20435;-76
2024/02/25 10:24:32;;;;;;;1.70;1.30;;;;;;;;;;5007618;28;20426;-76
2024/02/25 10:27:07;;;;;;;3.40;1.50;;;;;;;;;;4995331;28;20473;-78
2024/02/25 10:29:33;;;;;;;2.30;1.43;;;;;;;;;;5002242;28;20445;-78
2024/02/25 10:32:00;;;;;;;1.10;0.90;;;;;;;;;;4999307;28;20478;-79
2024/02/25 10:34:26;;;;;;;1.63;1.07;;;;;;;;;;4987185;28;20478;-77
2024/02/25 10:36:52;;;;;;;3.10;1.10;;;;;;;;;;4983725;28;20577;-77
2024/02/25 10:39:18;;;;;;;2.37;1.10;;;;;;;;;;5002924;28;20434;-77
2024/02/25 10:41:44;;;;;;;1.03;0.97;;;;;;;;;;5001709;28;20451;-77
2024/02/25 10:44:10;;;;;;;1.70;0.97;;;;;;;;;;4999498;28;20526;-77
2024/02/25 10:46:39;;;;;;;2.80;0.90;;;;;;;;;;5000255;28;20435;-77
2024/02/25 10:49:07;;;;;;;1.50;1.10;;;;;;;;;;5000735;28;20427;-77
2024/02/25 10:51:34;;;;;;;0.97;0.90;;;;;;;;;;4995270;28;20443;-77
2024/02/25 10:54:00;;;;;;;1.20;1.00;;;;;;;;;;4994246;28;20475;-77
2024/02/25 10:56:29;;;;;;;1.30;1.23;;;;;;;;;;4981978;28;20464;-77
2024/02/25 10:58:56;;;;;;;4.17;1.83;;;;;;;;;;4987748;28;20438;-76
2024/02/25 11:01:24;;;;;;;1.80;1.43;;;;;;;;;;4996444;28;21061;-76
2024/02/25 11:03:50;;;;;;;2.37;1.30;;;;;;;;;;4996290;28;20451;-77
2024/02/25 11:06:33;;;;;;;1.00;0.90;;;;;;;;;;4997244;28;20411;-77
2024/02/25 11:09:18;;;;;;;1.33;1.00;;;;;;;;;;4998212;28;20449;-77
2024/02/25 11:11:45;;;;;;;1.70;1.20;;;;;;;;;;4998840;28;20439;-77
2024/02/25 11:14:11;;;;;;;1.63;1.50;;;;;;;;;;4998518;28;20533;-77
2024/02/25 11:16:39;;;;;;;0.97;0.87;;;;;;;;;;4998166;28;20437;-77
2024/02/25 11:19:08;;;;;;;3.03;1.10;;;;;;;;;;4996320;28;20427;-77
2024/02/25 11:21:36;;;;;;;1.53;1.17;;;;;;;;;;4997533;28;20442;-77
2024/02/25 11:24:02;;;;;;;2.53;1.30;;;;;;;;;;4995801;28;20512;-76
2024/02/25 11:26:34;;;;;;;2.40;1.40;;;;;;;;;;4998985;28;20415;-76
2024/02/25 11:29:19;;;;;;;3.40;1.60;;;;;;;;;;4998106;28;20423;-76
2024/02/25 11:32:00;;;;;;;2.50;1.90;;;;;;;;;;4998843;28;20447;-77
2024/02/25 11:34:28;;;;;;;2.83;1.50;;;;;;;;;;5000221;28;20466;-77
2024/02/25 11:36:57;;;;;;;2.80;1.60;;;;;;;;;;4999949;28;20438;-77
2024/02/25 11:39:27;;;;;;;1.53;1.43;;;;;;;;;;4998804;28;20434;-77
2024/02/25 11:42:04;;;;;;;1.73;1.70;;;;;;;;;;4996147;28;20461;-76
2024/02/25 11:44:34;;;;;;;4.40;1.57;;;;;;;;;;4996425;28;20498;-76
2024/02/25 11:47:07;;;;;;;2.57;1.33;;;;;;;;;;4997648;28;20473;-77
2024/02/25 11:49:34;;;;;;;2.20;1.50;;;;;;;;;;4999066;28;20423;-77
2024/02/25 11:52:00;;;;;;;1.23;1.07;;;;;;;;;;4999322;28;20438;-77
2024/02/25 11:54:26;;;;;;;1.60;1.33;;;;;;;;;;4998686;28;20476;-77
2024/02/25 11:56:53;;;;;;;1.23;1.17;;;;;;;;;;4999196;28;20481;-77
2024/02/25 11:59:19;;;;;;;2.10;1.37;;;;;;;;;;5000282;28;20453;-76
2024/02/25 12:01:49;;;;;;;2.20;1.00;;;;;;;;;;5006947;28;20442;-77
2024/02/25 12:04:15;;;;;;;2.00;0.90;;;;;;;;;;5001159;28;20419;-77
2024/02/25 12:06:41;;;;;;;2.40;1.43;;;;;;;;;;5007512;28;20406;-77
2024/02/25 12:09:08;;;;;;;2.00;1.23;;;;;;;;;;4992757;28;20461;-76
2024/02/25 12:11:35;;;;;;;1.60;1.30;;;;;;;;;;4998051;28;21036;-76
2024/02/25 12:14:04;;;;;;;1.43;1.23;;;;;;;;;;4999665;28;20470;-78
2024/02/25 12:16:30;;;;;;;1.10;1.00;;;;;;;;;;4993366;28;20418;-77
2024/02/25 12:18:57;;;;;;;1.03;0.97;;;;;;;;;;5010275;28;20424;-77
2024/02/25 12:21:27;;;;;;;2.07;1.00;;;;;;;;;;5003659;28;20479;-77
2024/02/25 12:24:00;;;;;;;1.30;1.00;;;;;;;;;;4998347;28;20415;-78
2024/02/25 12:26:29;;;;;;;2.73;1.90;;;;;;;;;;4997213;28;20411;-78
2024/02/25 12:29:07;;;;;;;2.70;1.87;;;;;;;;;;5000621;28;20407;-77
2024/02/25 12:31:34;;;;;;;2.33;1.30;;;;;;;;;;5002917;28;20426;-77
2024/02/25 12:34:01;;;;;;;1.90;1.20;;;;;;;;;;5007894;28;20463;-77
2024/02/25 12:36:27;;;;;;;1.70;1.20;;;;;;;;;;4995532;28;20415;-77
2024/02/25 12:38:54;;;;;;;1.87;1.40;;;;;;;;;;4995631;28;20745;-76
2024/02/25 12:41:20;;;;;;;3.43;1.60;;;;;;;;;;4994473;28;20431;-75
2024/02/25 12:43:51;;;;;;;2.47;1.27;;;;;;;;;;4993427;28;20415;-75
2024/02/25 12:46:19;;;;;;;2.00;1.17;;;;;;;;;;4993346;28;20411;-75
2024/02/25 12:48:45;;;;;;;3.90;1.47;;;;;;;;;;4993307;28;20414;-76
2024/02/25 12:51:15;;;;;;;11.00;3.70;;;;;;;;;;4993144;28;20801;-76
2024/02/25 12:53:41;;;;;;;3.73;1.70;;;;;;;;;;4992370;28;20469;-76
2024/02/25 12:56:08;;;;;;;2.77;1.50;;;;;;;;;;4993533;28;20494;-76
2024/02/25 12:58:33;;;;;;;3.03;0.93;;;;;;;;;;4993390;28;20775;-77
2024/02/25 13:01:00;;;;;;;1.73;1.40;;;;;;;;;;4993008;28;20450;-76
2024/02/25 13:03:26;;;;;;;2.20;1.20;;;;;;;;;;4993756;28;20411;-76
2024/02/25 13:05:51;;;;;;;1.50;1.10;;;;;;;;;;4993807;28;20485;-77
2024/02/25 13:08:17;;;;;;;1.47;0.90;;;;;;;;;;4994448;28;20407;-75
2024/02/25 13:10:43;;;;;;;1.10;0.90;;;;;;;;;;4993680;28;20832;-76
2024/02/25 13:13:09;;;;;;;0.83;0.80;;;;;;;;;;4992889;28;20528;-75
2024/02/25 13:15:35;;;;;;;2.13;0.80;;;;;;;;;;5002895;28;20391;-75
2024/02/25 13:18:01;;;;;;;1.33;1.00;;;;;;;;;;5003617;28;20426;-76
2024/02/25 13:20:27;;;;;;;1.20;0.90;;;;;;;;;;5000739;28;20451;-76
2024/02/25 13:22:53;;;;;;;1.00;0.90;;;;;;;;;;5001197;28;20418;-77
2024/02/25 13:25:19;;;;;;;1.37;1.30;;;;;;;;;;4993755;28;20798;-77
2024/02/25 13:27:45;;;;;;;3.83;1.10;;;;;;;;;;4993794;28;20473;-77
2024/02/25 13:30:11;;;;;;;1.97;1.43;;;;;;;;;;4993366;28;20411;-77
2024/02/25 13:32:37;;;;;;;2.97;1.67;;;;;;;;;;4993457;28;20474;-77
2024/02/25 13:35:04;;;;;;;1.00;1.00;;;;;;;;;;4991855;28;20437;-77
2024/02/25 13:37:30;;;;;;;1.67;1.30;;;;;;;;;;4993057;28;20422;-76
2024/02/25 13:39:56;;;;;;;1.43;1.10;;;;;;;;;;4993074;28;20403;-77
2024/02/25 13:42:22;;;;;;;2.40;1.30;;;;;;;;;;4992635;28;20426;-77
2024/02/25 13:44:48;;;;;;;1.50;1.20;;;;;;;;;;4993334;28;20426;-77
2024/02/25 13:47:15;;;;;;;2.80;1.40;;;;;;;;;;4993050;28;20471;-77
2024/02/25 13:49:41;;;;;;;2.43;1.60;;;;;;;;;;4992195;28;20411;-77
2024/02/25 13:52:07;;;;;;;2.00;1.30;;;;;;;;;;4992702;28;20500;-77
2024/02/25 13:54:33;;;;;;;1.60;1.33;;;;;;;;;;4992834;28;20462;-77
2024/02/25 13:56:59;;;;;;;2.70;1.30;;;;;;;;;;4992686;28;20429;-77
2024/02/25 13:59:26;;;;;;;1.30;1.10;;;;;;;;;;4993093;28;20457;-77
2024/02/25 14:01:52;;;;;;;1.00;0.90;;;;;;;;;;4991780;28;20525;-78
2024/02/25 14:04:18;;;;;;;1.67;1.20;;;;;;;;;;4994453;28;20418;-77
2024/02/25 14:06:45;;;;;;;1.27;1.20;;;;;;;;;;4993685;28;20410;-76
2024/02/25 14:09:11;;;;;;;1.43;1.23;;;;;;;;;;4992932;28;20419;-77
2024/02/25 14:11:37;;;;;;;4.50;2.23;;;;;;;;;;4993020;28;20427;-77
2024/02/25 14:14:03;;;;;;;6.17;1.37;;;;;;;;;;4992572;28;20641;-77
2024/02/25 14:16:30;;;;;;;1.90;1.43;;;;;;;;;;4995622;28;20407;-75
2024/02/25 14:18:57;;;;;;;0.93;0.83;;;;;;;;;;4992063;28;20411;-76
2024/02/25 14:21:23;;;;;;;1.70;1.17;;;;;;;;;;4992107;28;20457;-74
2024/02/25 14:23:49;;;;;;;3.07;1.40;;;;;;;;;;4991698;28;20438;-75
2024/02/25 14:26:15;;;;;;;1.53;1.00;;;;;;;;;;4990213;28;20442;-76
2024/02/25 14:28:41;;;;;;;1.67;1.00;;;;;;;;;;5001727;28;20414;-74
2024/02/25 14:31:07;;;;;;;1.13;1.10;;;;;;;;;;4991370;28;20505;-75
2024/02/25 14:33:33;;;;;;;1.33;1.20;;;;;;;;;;4991332;28;20463;-75
2024/02/25 14:36:00;;;;;;;1.27;1.17;;;;;;;;;;4991637;28;20403;-75
2024/02/25 14:38:26;;;;;;;1.30;1.00;;;;;;;;;;4991767;28;20419;-76
2024/02/25 14:40:52;;;;;;;1.30;1.20;;;;;;;;;;4991249;28;20464;-76
2024/02/25 14:43:20;;;;;;;2.70;1.17;;;;;;;;;;4990105;28;20975;-76
2024/02/25 14:45:46;;;;;;;1.40;1.30;;;;;;;;;;4991267;28;20763;-76
2024/02/25 14:48:12;;;;;;;2.53;1.27;;;;;;;;;;4991597;28;20411;-76
2024/02/25 14:50:38;;;;;;;3.27;1.30;;;;;;;;;;4991372;28;20501;-76
2024/02/25 14:53:04;;;;;;;1.73;1.10;;;;;;;;;;4991199;28;20966;-75
2024/02/25 14:55:31;;;;;;;1.27;1.10;;;;;;;;;;4991277;28;20856;-75
2024/02/25 14:57:57;;;;;;;0.80;0.80;;;;;;;;;;4992459;28;20411;-76
2024/02/25 15:00:23;;;;;;;1.40;1.30;;;;;;;;;;4993679;28;20949;-75
2024/02/25 15:02:52;;;;;;;2.13;1.00;;;;;;;;;;4993541;28;20450;-75
2024/02/25 15:05:18;;;;;;;3.43;1.17;;;;;;;;;;4995086;28;20414;-75
2024/02/25 15:07:44;;;;;;;1.20;1.10;;;;;;;;;;4995126;28;20421;-76
2024/02/25 15:10:13;;;;;;;4.10;1.23;;;;;;;;;;4995214;28;20422;-76
2024/02/25 15:12:39;;;;;;;2.57;1.30;;;;;;;;;;4994518;28;20547;-76
2024/02/25 15:15:06;;;;;;;1.17;0.97;;;;;;;;;;4995482;28;20430;-75
2024/02/25 15:17:33;;;;;;;2.10;1.30;;;;;;;;;;4995319;28;20561;-76
2024/02/25 15:20:00;;;;;;;1.20;1.07;;;;;;;;;;4995460;28;20406;-76
2024/02/25 15:22:26;;;;;;;4.20;0.83;;;;;;;;;;4994857;28;20445;-76
2024/02/25 15:24:52;;;;;;;1.17;1.13;;;;;;;;;;4995294;28;20494;-76
2024/02/25 15:27:17;;;;;;;1.10;1.00;;;;;;;;;;4995192;28;20420;-75
2024/02/25 15:29:43;;;;;;;1.80;0.87;;;;;;;;;;4995039;28;20414;-76
2024/02/25 15:32:10;;;;;;;2.83;0.97;;;;;;;;;;4995076;28;20814;-76
2024/02/25 15:34:36;;;;;;;1.17;1.00;;;;;;;;;;4994894;28;20466;-75
2024/02/25 15:37:03;;;;;;;1.27;1.00;;;;;;;;;;4995068;28;20415;-75
2024/02/25 15:39:29;;;;;;;1.00;0.90;;;;;;;;;;4995021;28;20426;-76
2024/02/25 15:41:55;;;;;;;2.20;1.23;;;;;;;;;;4994376;28;20442;-76
2024/02/25 15:44:21;;;;;;;1.30;1.13;;;;;;;;;;4994644;28;20458;-76
2024/02/25 15:46:47;;;;;;;1.00;0.90;;;;;;;;;;4994731;28;20415;-75
2024/02/25 15:49:13;;;;;;;2.17;1.60;;;;;;;;;;4994574;28;20415;-75
2024/02/25 15:51:39;;;;;;;1.10;1.00;;;;;;;;;;4993973;28;20949;-75
2024/02/25 15:54:06;;;;;;;2.17;1.50;;;;;;;;;;4994308;28;20458;-75
2024/02/25 15:56:32;;;;;;;5.63;2.97;;;;;;;;;;4994935;28;20403;-75
2024/02/25 15:58:58;;;;;;;2.37;1.40;;;;;;;;;;4994635;28;20457;-75
2024/02/25 16:01:24;;;;;;;4.17;1.80;;;;;;;;;;4994097;28;20820;-75
2024/02/25 16:03:50;;;;;;;1.87;1.40;;;;;;;;;;4993229;28;20438;-74
2024/02/25 16:06:16;;;;;;;2.77;1.30;;;;;;;;;;4993442;28;20415;-75
2024/02/25 16:08:42;;;;;;;4.23;2.03;;;;;;;;;;4991762;28;20910;-74
2024/02/25 16:11:09;;;;;;;2.83;1.57;;;;;;;;;;4992508;28;20454;-75
2024/02/25 16:13:38;;;;;;;2.70;1.87;;;;;;;;;;4993303;28;20537;-77
2024/02/25 16:16:06;;;;;;;2.27;1.90;;;;;;;;;;4993987;28;20411;-77
2024/02/25 16:18:32;;;;;;;1.40;1.40;;;;;;;;;;4994765;28;20504;-77
2024/02/25 16:20:58;;;;;;;1.70;1.70;;;;;;;;;;4994596;28;20462;-77
2024/02/25 16:23:24;;;;;;;6.37;1.93;;;;;;;;;;4994570;28;20502;-80
2024/02/25 16:25:50;;;;;;;4.40;1.70;;;;;;;;;;4994686;28;20458;-78
2024/02/25 16:28:16;;;;;;;2.87;1.90;;;;;;;;;;4995863;28;20411;-77
2024/02/25 16:30:42;;;;;;;3.83;2.37;;;;;;;;;;4996640;28;20427;-80
2024/02/25 16:33:08;;;;;;;3.40;2.30;;;;;;;;;;4993951;28;20858;-77
2024/02/25 16:35:36;;;;;;;3.60;1.77;;;;;;;;;;4998607;28;20439;-79
2024/02/25 16:38:06;;;;;;;2.60;1.70;;;;;;;;;;4998138;28;20411;-80
2024/02/25 16:40:32;;;;;;;2.30;2.10;;;;;;;;;;4997731;28;20443;-79
2024/02/25 16:42:58;;;;;;;3.00;2.20;;;;;;;;;;4998372;28;20457;-78
2024/02/25 16:45:24;;;;;;;3.37;2.30;;;;;;;;;;4995180;28;20415;-79
2024/02/25 16:47:50;;;;;;;2.90;2.20;;;;;;;;;;4997171;28;20434;-78
2024/02/25 16:50:16;;;;;;;2.50;2.10;;;;;;;;;;4999276;28;20423;-79
2024/02/25 16:52:42;;;;;;;3.33;1.90;;;;;;;;;;4999013;28;20512;-78
2024/02/25 16:55:09;;;;;;;2.70;2.00;;;;;;;;;;4997571;28;20494;-78
2024/02/25 16:57:35;;;;;;;2.20;1.80;;;;;;;;;;5001530;28;20415;-83
2024/02/25 17:00:03;;;;;;;4.20;1.50;;;;;;;;;;4996711;28;20485;-81
2024/02/25 17:02:30;;;;;;;2.87;2.03;;;;;;;;;;4958634;28;1041843;-79
2024/02/25 17:04:56;;;;;;;3.00;1.87;;;;;;;;;;4998077;28;20890;-80
2024/02/25 17:07:22;;;;;;;2.50;2.00;;;;;;;;;;4998229;28;20475;-79
2024/02/25 17:09:48;;;;;;;3.60;2.07;;;;;;;;;;5002158;28;20891;-79
2024/02/25 17:12:14;;;;;;;7.03;1.77;;;;;;;;;;5000938;28;20449;-79
2024/02/25 17:14:40;;;;;;;4.30;2.10;;;;;;;;;;5006356;28;20477;-80
2024/02/25 17:17:06;;;;;;;4.17;3.20;;;;;;;;;;5008551;28;20419;-80
2024/02/25 17:19:32;;;;;;;4.23;2.20;;;;;;;;;;5007272;28;20434;-80
2024/02/25 17:21:58;;;;;;;2.90;2.53;;;;;;;;;;5002147;28;20428;-79
2024/02/25 17:24:24;;;;;;;5.60;2.47;;;;;;;;;;4994830;28;20454;-79
2024/02/25 17:26:53;;;;;;;3.40;2.40;;;;;;;;;;5000927;28;20442;-79
2024/02/25 17:29:18;;;;;;;3.20;2.27;;;;;;;;;;4999955;28;20423;-79
2024/02/25 17:31:44;;;;;;;3.67;2.50;;;;;;;;;;5001180;28;20883;-79
2024/02/25 17:34:12;;;;;;;6.90;2.83;;;;;;;;;;5007920;28;20470;-79
2024/02/25 17:36:39;;;;;;;3.50;2.87;;;;;;;;;;5006253;28;20419;-80
2024/02/25 17:39:05;;;;;;;4.10;2.60;;;;;;;;;;5007986;28;20415;-80
2024/02/25 17:41:31;;;;;;;3.63;2.53;;;;;;;;;;4994987;28;20470;-79
2024/02/25 17:43:57;;;;;;;6.33;2.63;;;;;;;;;;4998859;28;20438;-77
2024/02/25 17:46:25;;;;;;;8.83;3.23;;;;;;;;;;4995522;28;20442;-78
2024/02/25 17:48:51;;;;;;;3.30;2.30;;;;;;;;;;4995255;28;20433;-77
2024/02/25 17:51:17;;;;;;;3.17;2.03;;;;;;;;;;4991668;28;20451;-77
2024/02/25 17:53:43;;;;;;;12.00;3.60;;;;;;;;;;4993600;28;20463;-78
2024/02/25 17:56:09;;;;;;;6.90;3.20;;;;;;;;;;4994742;28;20415;-77
2024/02/25 17:58:35;;;;;;;4.60;2.80;;;;;;;;;;4997669;28;20417;-77
2024/02/25 18:01:03;;;;;;;6.33;3.50;;;;;;;;;;4988419;28;20447;-77
2024/02/25 18:03:30;;;;;;;7.67;3.40;;;;;;;;;;4996933;28;20527;-77
2024/02/25 18:05:57;;;;;;;5.90;3.43;;;;;;;;;;4996154;28;20950;-79
2024/02/25 18:08:24;;;;;;;16.67;4.13;;;;;;;;;;4998073;28;20786;-81
2024/02/25 18:10:49;;;;;;;5.33;3.03;;;;;;;;;;4995941;28;20559;-78
2024/02/25 18:13:15;;;;;;;8.13;4.23;;;;;;;;;;4991839;28;20835;-78
2024/02/25 18:15:41;;;;;;;10.80;5.40;;;;;;;;;;4992938;28;20414;-79
2024/02/25 18:18:08;;;;;;;9.23;5.10;;;;;;;;;;4995031;28;20422;-81
2024/02/25 18:20:34;;;;;;;6.53;3.70;;;;;;;;;;4996576;28;20443;-79
2024/02/25 18:23:00;;;;;;;4.33;2.80;;;;;;;;;;4992089;28;20435;-78
2024/02/25 18:25:26;;;;;;;4.67;2.67;;;;;;;;;;4986399;28;20419;-79
2024/02/25 18:27:52;;;;;;;4.73;2.87;;;;;;;;;;4994774;28;20570;-79
2024/02/25 18:30:18;;;;;;;4.83;2.80;;;;;;;;;;4981965;28;20930;-78
2024/02/25 18:32:44;;;;;;;11.50;4.00;;;;;;;;;;4996823;28;20457;-76
2024/02/25 18:35:10;;;;;;;13.43;5.50;;;;;;;;;;4992181;28;20443;-79
2024/02/25 18:37:36;;;;;;;19.93;6.10;;;;;;;;;;5012863;28;20399;-79
2024/02/25 18:40:02;;;;;;;10.40;4.30;;;;;;;;;;5018840;28;20419;-79
2024/02/25 18:42:28;;;;;;;7.57;3.50;;;;;;;;;;5008154;28;20435;-78
2024/02/25 18:44:55;;;;;;;7.77;4.20;;;;;;;;;;5003985;28;20423;-78
2024/02/25 18:47:21;;;;;;;5.20;3.53;;;;;;;;;;4991643;28;20462;-79
2024/02/25 18:49:47;;;;;;;9.23;3.53;;;;;;;;;;4998813;28;20937;-78
2024/02/25 18:52:13;;;;;;;5.10;3.17;;;;;;;;;;4999845;28;20938;-78
2024/02/25 18:54:42;;;;;;;9.87;5.10;;;;;;;;;;5001101;28;20459;-79
2024/02/25 18:57:08;;;;;;;6.93;3.40;;;;;;;;;;4993206;28;20462;-80
2024/02/25 18:59:39;;;;;;;6.30;3.60;;;;;;;;;;4999805;28;20419;-79
2024/02/25 19:02:05;;;;;;;4.17;3.30;;;;;;;;;;5001085;28;20545;-78
2024/02/25 19:04:31;;;;;;;7.17;3.97;;;;;;;;;;4999528;28;20431;-79
2024/02/25 19:06:57;;;;;;;5.23;4.10;;;;;;;;;;4998401;28;20423;-78
2024/02/25 19:09:23;;;;;;;7.50;4.70;;;;;;;;;;4998463;28;20430;-79
2024/02/25 19:11:50;;;;;;;7.93;4.50;;;;;;;;;;5000715;28;20888;-81
2024/02/25 19:14:18;;;;;;;7.43;3.93;;;;;;;;;;4999247;28;20513;-80
2024/02/25 19:16:44;;;;;;;9.50;4.87;;;;;;;;;;4999572;28;20455;-82
2024/02/25 19:19:10;;;;;;;12.13;6.00;;;;;;;;;;5003693;28;20477;-81
2024/02/25 19:21:38;;;;;;;10.13;5.87;;;;;;;;;;5013193;28;20435;-83
2024/02/25 19:24:06;;;;;;;7.43;4.60;;;;;;;;;;5002871;28;20439;-81
2024/02/25 19:26:35;;;;;;;6.20;4.37;;;;;;;;;;5005355;28;20485;-81
2024/02/25 19:29:01;;;;;;;8.63;4.50;;;;;;;;;;5008088;28;20423;-77
2024/02/25 19:31:27;;;;;;;6.43;3.70;;;;;;;;;;5014699;28;20650;-80
2024/02/25 19:33:53;;;;;;;8.10;4.10;;;;;;;;;;5014957;28;20460;-80
2024/02/25 19:36:18;;;;;;;4.90;3.67;;;;;;;;;;5009225;28;20458;-80
2024/02/25 19:38:44;;;;;;;5.13;3.77;;;;;;;;;;5000067;28;20426;-80
2024/02/25 19:41:14;;;;;;;8.70;4.20;;;;;;;;;;4990994;28;20430;-80
2024/02/25 19:43:40;;;;;;;8.40;3.57;;;;;;;;;;4994237;28;20415;-80
2024/02/25 19:46:06;;;;;;;7.80;3.97;;;;;;;;;;4999393;28;20817;-80
2024/02/25 19:48:32;;;;;;;10.80;4.73;;;;;;;;;;5000334;28;20430;-81
2024/02/25 19:50:59;;;;;;;11.43;4.30;;;;;;;;;;5001606;28;20481;-82
2024/02/25 19:53:25;;;;;;;5.83;3.80;;;;;;;;;;5000677;28;21068;-81
2024/02/25 19:55:51;;;;;;;11.53;4.40;;;;;;;;;;5005060;28;20422;-77
2024/02/25 19:58:20;;;;;;;6.17;4.00;;;;;;;;;;4996983;28;20882;-78
2024/02/25 20:00:46;;;;;;;6.77;4.30;;;;;;;;;;4995869;28;20450;-77
2024/02/25 20:03:12;;;;;;;9.43;4.03;;;;;;;;;;4995055;28;20415;-79
2024/02/25 20:05:39;;;;;;;8.77;4.27;;;;;;;;;;4995304;28;20554;-80
2024/02/25 20:08:05;;;;;;;9.77;4.10;;;;;;;;;;4996310;28;20447;-79
2024/02/25 20:10:31;;;;;;;9.27;3.93;;;;;;;;;;4996059;28;20513;-79
2024/02/25 20:12:57;;;;;;;7.50;4.37;;;;;;;;;;4995705;28;20486;-78
2024/02/25 20:15:23;;;;;;;5.27;3.13;;;;;;;;;;4994825;28;20557;-78
2024/02/25 20:17:49;;;;;;;3.80;2.93;;;;;;;;;;4987876;28;20496;-77
2024/02/25 20:20:15;;;;;;;5.73;3.63;;;;;;;;;;4995406;28;20416;-79
2024/02/25 20:22:43;;;;;;;6.00;3.90;;;;;;;;;;4995343;28;20427;-80
2024/02/25 20:25:09;;;;;;;5.10;3.33;;;;;;;;;;4998436;28;20427;-78
2024/02/25 20:27:34;;;;;;;9.70;3.70;;;;;;;;;;4989029;28;20424;-77
2024/02/25 20:30:00;;;;;;;5.87;3.40;;;;;;;;;;4989229;28;20461;-79
2024/02/25 20:32:27;;;;;;;4.67;3.20;;;;;;;;;;4998506;28;20463;-80
2024/02/25 20:34:53;;;;;;;4.60;2.60;;;;;;;;;;4998733;28;21018;-80
2024/02/25 20:37:19;;;;;;;2.57;2.40;;;;;;;;;;4999697;28;20473;-80
2024/02/25 20:39:45;;;;;;;4.50;2.70;;;;;;;;;;4997563;28;20926;-80